Redwood City, CA

1:21 PM PDT on September 18, 2014 (GMT -0700)
Hayward Executive | Change Station
CLOSE
Current Station
Airport
Location: Hayward,
Elevation: 46 ft
Nearby Weather Stations

Elev 46 ft 37.66 °N, 122.12 °W | Updated 27 minutes ago

Mostly Cloudy
Mostly Cloudy
78 °F
Feels Like 78 °F
N
12
Wind Variable Wind from West
Gusts 20 mph

Today
High -- | Low -- °F
--% Chance of Precip.
Yesterday
High -- | Low -- °F
Precip. -- in
6:53 AM 7:11 PM
Waning Crescent, 25% visible
Pressure 29.90 in
Visibility 10.0 miles
Clouds Mostly Cloudy 6500 ft
Dew Point 63 °F
Humidity 60%
Rainfall 0.00 in
Snow Depth 0 in , 0 in , 0 in
UV 4 out of 12
Pollen 5.10 out of 12
Ozone Good
PM2.5 Good
Flu Activity Not available.
METAR KHWD 181954Z 26010G17KT 10SM BKN065 26/17 A2987 RMK AO2 SLP124 T02560172

More Conditions Fewer Conditions

Pressure 29.90 in
Visibility 10.0 miles
Clouds Mostly Cloudy 6500 ft
Dew Point 63 °F
Humidity 60%
Rainfall 0.00 in
Snow Depth 0 in , 0 in , 0 in
UV 4 out of 12
Pollen 5.10 out of 12
Ozone Good
PM2.5 Good
Flu Activity Not available.
METAR KHWD 181954Z 26010G17KT 10SM BKN065 26/17 A2987 RMK AO2 SLP124 T02560172

More Conditions Fewer Conditions

10-Day Weather Forecast

Almanac

Astronomy

Sep. 18, 2014 Rise Set
Actual Time 6:53 AM PDT 7:11 PM PDT
Civil Twilight 6:27 AM PDT 7:37 PM PDT
Nautical Twilight 5:56 AM PDT 8:08 PM PDT
Astronomical Twilight 5:25 AM PDT 8:39 PM PDT
Moon 1:55 AM PDT 4:02 PM PDT
Length of Visible Light 13h 10m
Length of Day
12h 18m
Tomorrow will be 2m 23s shorter.
Waning Crescent, 25% of the Moon is Illuminated
Today
Waning Crescent
Sep 24
New
Oct 1
First Quarter
Oct 8
Full
Oct 15
Last Quarter

Today's Extremes

State Highs State Lows

Community

WunderPhotos

Upload Photos

1,754,423 photos uploaded!

WunderBlogs® & News

By Dr. Jeff Masters
Director of Meteorology, Weather Underground
By Kari Strenfel
Meteorologist, Weather Underground
By Christopher C. Burt
Weather Historian, Weather Underground
September 18, 2014
September 18, 2014
September 18, 2014

Nearby

Air Quality

  Air Quality AQ Index Pollutant
Yesterday Good
PM2.5
Yesterday Good
OZONE
Current Good
PM2.5
Current Good
OZONE
Thursday Good
OZONE
Friday Good
OZONE
Saturday Moderate
PM2.5
Sunday Moderate
PM2.5
Monday Good
PM2.5
Tuesday Good
PM2.5

Snow Depth

Station Depth Elevation
Tahoe City Cross 0 in 6750 ft
Echo Peak 0 in 7800 ft
Summit Meadow 0 in 9122 ft
Rubicon #2 0 in 7500 ft
Monitor Pass 0 in 8350 ft

Earthquake Activity

City Distance Mag. Time & Date
The Geysers, California 97 miles 2.5 11:29 PM PDT
2014-09-17
Cobb, California 99 miles 2.7 1:23 PM PDT
2014-09-16
Minimum magnitude displayed is 2.5.

Coastal Water Temperatures

Place Temperature
No Stations Reporting

Nearby Weather Stations